This is the latest recevied weather packets stored in our database for station/object DL8NDG-13. If no packets are shown the sender has not sent any weather packets the latest 10 day(s).
| Time | Temp. | Humidity | Pressure | Rain* | Wind** | Luminosity | Snow |
|---|---|---|---|---|---|---|---|
| 1777639507 | 21.67° C | 36% | 1026 hPa | 0 mm | - | 819 W/m² | - |
| 1777637703 | 21.67° C | 37% | 1026.3 hPa | 0 mm | - | 838 W/m² | - |
| 1777635058 | 20.56° C | 35% | 1026.9 hPa | 0 mm | - | 847 W/m² | - |
| 1777631446 | 19.44° C | 37% | 1027.2 hPa | 0 mm | - | 835 W/m² | - |
| 1777627849 | 18.33° C | 39% | 1027.8 hPa | 0 mm | - | 770 W/m² | - |
| 1777626025 | 17.22° C | 39% | 1028 hPa | 0 mm | - | 717 W/m² | - |
| 1777623320 | 14.44° C | 46% | 1028.3 hPa | 0 mm | - | 46 W/m² | - |
| 1777622412 | 13.89° C | 48% | 1028.3 hPa | 0 mm | - | 42 W/m² | - |
| 1777611635 | 3.89° C | 75% | 1028 hPa | 0 mm | - | 21 W/m² | - |
| 1777608028 | 2.78° C | 76% | 1027.7 hPa | 0 mm | - | 5 W/m² | - |
| 1777603520 | 3.33° C | 71% | 1027.8 hPa | 0 mm | - | 0 W/m² | - |
| 1777602622 | 3.89° C | 70% | 1027.8 hPa | 0 mm | - | 0 W/m² | - |
| 1777601719 | 3.89° C | 69% | 1027.9 hPa | 0 mm | - | 0 W/m² | - |
| 1777597210 | 4.44° C | 66% | 1027.8 hPa | 0 mm | - | 0 W/m² | - |
| 1777588251 | 6.67° C | 57% | 1027.5 hPa | 0 mm | - | 0 W/m² | - |
| 1777587356 | 7.22° C | 56% | 1027.5 hPa | 0 mm | - | 0 W/m² | - |
| 1777586450 | 7.22° C | 54% | 1027.6 hPa | 0 mm | - | 0 W/m² | - |
| 1777583750 | 8.33° C | 48% | 1027.2 hPa | 0 mm | - | 0 W/m² | - |
| 1777581944 | 9.44° C | 46% | 1027.1 hPa | 0 mm | - | 0 W/m² | - |
| 1777581040 | 9.44° C | 45% | 1027.3 hPa | 0 mm | - | 0 W/m² | - |
| 1777580140 | 9.44° C | 45% | 1027.4 hPa | 0 mm | - | 0 W/m² | - |
| 1777579239 | 10° C | 44% | 1027.4 hPa | 0 mm | - | 0 W/m² | - |
| 1777575650 | 12.22° C | 36% | 1027 hPa | 0 mm | - | 0 W/m² | - |
| 1777573832 | 13.33° C | 31% | 1026.7 hPa | 0 mm | - | 5 W/m² | - |
| 1777569327 | 16.11° C | 24% | 1026.4 hPa | 0 mm | - | 225 W/m² | - |
* Rain latest hour (hover to see other rain measurements)
** Current wind speed in m/s (hover to see current wind gust speed)